sensor_id;sensor_type;location;lat;lon;timestamp;temperature;humidity
19646;DHT22;9971;52.446;13.452;2023-02-21T00:00:01;13.70;99.90
19646;DHT22;9971;52.446;13.452;2023-02-21T00:05:09;13.80;99.90
19646;DHT22;9971;52.446;13.452;2023-02-21T00:10:17;13.80;99.90
19646;DHT22;9971;52.446;13.452;2023-02-21T00:15:25;13.80;99.90
19646;DHT22;9971;52.446;13.452;2023-02-21T00:20:33;13.90;99.90
19646;DHT22;9971;52.446;13.452;2023-02-21T00:25:41;13.90;99.90
19646;DHT22;9971;52.446;13.452;2023-02-21T00:30:49;13.80;99.90
19646;DHT22;9971;52.446;13.452;2023-02-21T00:35:57;13.80;99.90
19646;DHT22;9971;52.446;13.452;2023-02-21T00:41:05;13.80;99.90
19646;DHT22;9971;52.446;13.452;2023-02-21T00:46:14;13.80;99.90
19646;DHT22;9971;52.446;13.452;2023-02-21T00:51:21;13.80;99.90
19646;DHT22;9971;52.446;13.452;2023-02-21T00:56:29;13.80;99.90
19646;DHT22;9971;52.446;13.452;2023-02-21T01:01:37;13.70;99.90
19646;DHT22;9971;52.446;13.452;2023-02-21T01:06:45;13.70;99.90
19646;DHT22;9971;52.446;13.452;2023-02-21T01:11:53;13.70;99.90
19646;DHT22;9971;52.446;13.452;2023-02-21T01:17:01;13.70;99.90
19646;DHT22;9971;52.446;13.452;2023-02-21T01:22:08;13.70;99.90
19646;DHT22;9971;52.446;13.452;2023-02-21T01:27:16;13.60;99.90
19646;DHT22;9971;52.446;13.452;2023-02-21T01:32:24;13.60;99.90
19646;DHT22;9971;52.446;13.452;2023-02-21T01:37:32;13.60;99.90
19646;DHT22;9971;52.446;13.452;2023-02-21T01:42:40;13.60;99.90
19646;DHT22;9971;52.446;13.452;2023-02-21T01:47:48;13.60;99.90
19646;DHT22;9971;52.446;13.452;2023-02-21T01:52:56;13.50;99.90
19646;DHT22;9971;52.446;13.452;2023-02-21T01:58:03;13.50;99.90
19646;DHT22;9971;52.446;13.452;2023-02-21T02:03:12;13.50;99.90
19646;DHT22;9971;52.446;13.452;2023-02-21T02:08:19;13.60;99.90
19646;DHT22;9971;52.446;13.452;2023-02-21T02:13:31;13.60;99.90
19646;DHT22;9971;52.446;13.452;2023-02-21T02:18:58;13.60;99.90
19646;DHT22;9971;52.446;13.452;2023-02-21T02:24:08;13.60;99.90
19646;DHT22;9971;52.446;13.452;2023-02-21T02:30:22;13.60;99.90
19646;DHT22;9971;52.446;13.452;2023-02-21T02:34:47;13.60;99.90
19646;DHT22;9971;52.446;13.452;2023-02-21T02:45:00;13.60;99.90
19646;DHT22;9971;52.446;13.452;2023-02-21T02:50:02;13.70;99.90
19646;DHT22;9971;52.446;13.452;2023-02-21T02:55:19;13.70;99.90
19646;DHT22;9971;52.446;13.452;2023-02-21T03:00:07;13.70;99.90
19646;DHT22;9971;52.446;13.452;2023-02-21T03:05:21;13.70;99.90
19646;DHT22;9971;52.446;13.452;2023-02-21T03:10:34;13.70;99.90
19646;DHT22;9971;52.446;13.452;2023-02-21T03:15:41;13.70;99.90
19646;DHT22;9971;52.446;13.452;2023-02-21T03:20:40;13.80;99.90
19646;DHT22;9971;52.446;13.452;2023-02-21T03:25:42;13.80;99.90
19646;DHT22;9971;52.446;13.452;2023-02-21T03:30:44;13.80;99.90
19646;DHT22;9971;52.446;13.452;2023-02-21T03:35:46;13.80;99.90
19646;DHT22;9971;52.446;13.452;2023-02-21T03:40:48;13.80;99.90
19646;DHT22;9971;52.446;13.452;2023-02-21T03:45:51;13.80;99.90
19646;DHT22;9971;52.446;13.452;2023-02-21T03:50:53;13.80;99.90
19646;DHT22;9971;52.446;13.452;2023-02-21T03:55:55;13.80;99.90
19646;DHT22;9971;52.446;13.452;2023-02-21T04:00:58;13.80;99.90
19646;DHT22;9971;52.446;13.452;2023-02-21T04:06:00;13.70;99.90
19646;DHT22;9971;52.446;13.452;2023-02-21T04:11:02;13.70;99.90
19646;DHT22;9971;52.446;13.452;2023-02-21T04:16:05;13.70;99.90
19646;DHT22;9971;52.446;13.452;2023-02-21T04:21:07;13.70;99.90
19646;DHT22;9971;52.446;13.452;2023-02-21T04:26:10;13.80;99.90
19646;DHT22;9971;52.446;13.452;2023-02-21T04:31:13;13.80;99.90
19646;DHT22;9971;52.446;13.452;2023-02-21T04:36:14;13.80;99.90
19646;DHT22;9971;52.446;13.452;2023-02-21T04:41:17;13.80;99.90
19646;DHT22;9971;52.446;13.452;2023-02-21T04:46:19;13.80;99.90
19646;DHT22;9971;52.446;13.452;2023-02-21T04:51:22;13.80;99.90
19646;DHT22;9971;52.446;13.452;2023-02-21T04:56:24;13.80;99.90
19646;DHT22;9971;52.446;13.452;2023-02-21T05:01:27;13.90;99.90
19646;DHT22;9971;52.446;13.452;2023-02-21T05:06:28;13.90;99.90
19646;DHT22;9971;52.446;13.452;2023-02-21T05:11:31;14.00;99.90
19646;DHT22;9971;52.446;13.452;2023-02-21T05:16:32;14.00;99.90
19646;DHT22;9971;52.446;13.452;2023-02-21T05:21:35;14.00;99.90
19646;DHT22;9971;52.446;13.452;2023-02-21T05:26:37;14.10;99.90
19646;DHT22;9971;52.446;13.452;2023-02-21T05:31:40;14.10;99.90
19646;DHT22;9971;52.446;13.452;2023-02-21T05:36:42;14.10;99.90
19646;DHT22;9971;52.446;13.452;2023-02-21T05:41:47;14.20;99.90
19646;DHT22;9971;52.446;13.452;2023-02-21T05:46:48;14.20;99.90
19646;DHT22;9971;52.446;13.452;2023-02-21T05:51:51;14.30;99.90
19646;DHT22;9971;52.446;13.452;2023-02-21T05:56:53;14.30;99.90
19646;DHT22;9971;52.446;13.452;2023-02-21T06:01:56;14.30;99.90
19646;DHT22;9971;52.446;13.452;2023-02-21T06:06:58;14.30;99.90
19646;DHT22;9971;52.446;13.452;2023-02-21T06:12:00;14.40;99.90
19646;DHT22;9971;52.446;13.452;2023-02-21T06:17:03;14.50;99.90
19646;DHT22;9971;52.446;13.452;2023-02-21T06:22:06;14.40;99.90
19646;DHT22;9971;52.446;13.452;2023-02-21T06:27:08;14.40;99.90
19646;DHT22;9971;52.446;13.452;2023-02-21T06:32:11;14.40;99.90
19646;DHT22;9971;52.446;13.452;2023-02-21T06:37:13;14.50;99.90
19646;DHT22;9971;52.446;13.452;2023-02-21T06:42:15;14.50;99.90
19646;DHT22;9971;52.446;13.452;2023-02-21T06:47:18;14.50;99.90
19646;DHT22;9971;52.446;13.452;2023-02-21T06:52:20;14.60;99.90
19646;DHT22;9971;52.446;13.452;2023-02-21T06:57:23;14.60;99.90
19646;DHT22;9971;52.446;13.452;2023-02-21T07:02:25;14.60;99.90
19646;DHT22;9971;52.446;13.452;2023-02-21T07:07:28;14.60;99.90
19646;DHT22;9971;52.446;13.452;2023-02-21T07:12:30;14.70;99.90
19646;DHT22;9971;52.446;13.452;2023-02-21T07:17:33;14.60;99.90
19646;DHT22;9971;52.446;13.452;2023-02-21T07:22:35;14.60;99.90
19646;DHT22;9971;52.446;13.452;2023-02-21T07:27:37;14.60;99.90
19646;DHT22;9971;52.446;13.452;2023-02-21T07:32:40;14.60;99.90
19646;DHT22;9971;52.446;13.452;2023-02-21T07:37:42;14.60;99.90
19646;DHT22;9971;52.446;13.452;2023-02-21T07:42:45;14.70;99.90
19646;DHT22;9971;52.446;13.452;2023-02-21T07:47:47;14.60;99.90
19646;DHT22;9971;52.446;13.452;2023-02-21T07:52:49;14.60;99.90
19646;DHT22;9971;52.446;13.452;2023-02-21T07:57:51;14.70;99.90
19646;DHT22;9971;52.446;13.452;2023-02-21T08:02:54;14.60;99.90
19646;DHT22;9971;52.446;13.452;2023-02-21T08:07:56;14.70;99.90
19646;DHT22;9971;52.446;13.452;2023-02-21T08:12:59;14.70;99.90
19646;DHT22;9971;52.446;13.452;2023-02-21T08:18:01;14.70;99.90
19646;DHT22;9971;52.446;13.452;2023-02-21T08:23:04;14.70;99.90
19646;DHT22;9971;52.446;13.452;2023-02-21T08:28:06;14.70;99.90
19646;DHT22;9971;52.446;13.452;2023-02-21T08:33:09;14.60;99.90
19646;DHT22;9971;52.446;13.452;2023-02-21T08:38:11;14.50;99.90
19646;DHT22;9971;52.446;13.452;2023-02-21T08:43:13;14.50;99.90
19646;DHT22;9971;52.446;13.452;2023-02-21T08:48:15;14.40;99.90
19646;DHT22;9971;52.446;13.452;2023-02-21T08:53:18;14.50;99.90
19646;DHT22;9971;52.446;13.452;2023-02-21T08:58:20;14.60;99.90
19646;DHT22;9971;52.446;13.452;2023-02-21T09:03:23;14.60;99.90
19646;DHT22;9971;52.446;13.452;2023-02-21T09:08:25;14.60;99.90
19646;DHT22;9971;52.446;13.452;2023-02-21T09:13:27;14.60;99.90
19646;DHT22;9971;52.446;13.452;2023-02-21T09:18:29;14.60;99.90
19646;DHT22;9971;52.446;13.452;2023-02-21T09:23:31;14.60;99.90
19646;DHT22;9971;52.446;13.452;2023-02-21T09:28:34;14.60;99.90
19646;DHT22;9971;52.446;13.452;2023-02-21T09:33:36;14.60;99.90
19646;DHT22;9971;52.446;13.452;2023-02-21T09:38:38;14.50;99.90
19646;DHT22;9971;52.446;13.452;2023-02-21T09:43:43;14.60;99.90
19646;DHT22;9971;52.446;13.452;2023-02-21T09:48:43;14.70;99.90
19646;DHT22;9971;52.446;13.452;2023-02-21T09:53:46;14.60;99.90
19646;DHT22;9971;52.446;13.452;2023-02-21T09:58:48;14.70;99.90
19646;DHT22;9971;52.446;13.452;2023-02-21T10:03:53;14.70;99.90
19646;DHT22;9971;52.446;13.452;2023-02-21T10:08:53;14.70;99.90
19646;DHT22;9971;52.446;13.452;2023-02-21T10:14:12;14.60;99.90
19646;DHT22;9971;52.446;13.452;2023-02-21T10:19:18;14.70;99.90
19646;DHT22;9971;52.446;13.452;2023-02-21T10:24:22;14.70;99.90
19646;DHT22;9971;52.446;13.452;2023-02-21T10:29:24;14.70;99.90
19646;DHT22;9971;52.446;13.452;2023-02-21T10:34:26;14.70;99.90
19646;DHT22;9971;52.446;13.452;2023-02-21T10:39:32;14.70;99.90
19646;DHT22;9971;52.446;13.452;2023-02-21T10:44:33;14.70;99.90
19646;DHT22;9971;52.446;13.452;2023-02-21T10:49:39;14.70;99.90
19646;DHT22;9971;52.446;13.452;2023-02-21T10:54:40;14.70;99.90
19646;DHT22;9971;52.446;13.452;2023-02-21T10:59:42;14.70;99.90
19646;DHT22;9971;52.446;13.452;2023-02-21T11:04:44;14.60;99.90
19646;DHT22;9971;52.446;13.452;2023-02-21T11:09:46;14.60;99.90
19646;DHT22;9971;52.446;13.452;2023-02-21T11:15:21;14.60;99.90
19646;DHT22;9971;52.446;13.452;2023-02-21T11:20:22;14.70;99.90
19646;DHT22;9971;52.446;13.452;2023-02-21T11:25:26;14.70;99.90
19646;DHT22;9971;52.446;13.452;2023-02-21T11:30:27;14.80;99.90
19646;DHT22;9971;52.446;13.452;2023-02-21T11:35:38;14.80;99.90
19646;DHT22;9971;52.446;13.452;2023-02-21T11:40:42;14.70;99.90
19646;DHT22;9971;52.446;13.452;2023-02-21T11:45:52;14.70;99.90
19646;DHT22;9971;52.446;13.452;2023-02-21T11:50:49;14.70;99.90
19646;DHT22;9971;52.446;13.452;2023-02-21T11:56:16;14.60;99.90
19646;DHT22;9971;52.446;13.452;2023-02-21T12:01:16;14.50;99.90
19646;DHT22;9971;52.446;13.452;2023-02-21T12:06:20;14.50;99.90
19646;DHT22;9971;52.446;13.452;2023-02-21T12:11:29;14.40;99.90
19646;DHT22;9971;52.446;13.452;2023-02-21T12:16:39;14.50;99.90
19646;DHT22;9971;52.446;13.452;2023-02-21T12:21:48;14.50;99.90
19646;DHT22;9971;52.446;13.452;2023-02-21T12:26:50;14.50;99.90
19646;DHT22;9971;52.446;13.452;2023-02-21T12:31:58;14.40;99.90
19646;DHT22;9971;52.446;13.452;2023-02-21T12:37:02;14.40;99.90
19646;DHT22;9971;52.446;13.452;2023-02-21T12:42:24;14.40;99.90
19646;DHT22;9971;52.446;13.452;2023-02-21T12:47:25;14.40;99.90
19646;DHT22;9971;52.446;13.452;2023-02-21T12:52:28;14.40;99.90
19646;DHT22;9971;52.446;13.452;2023-02-21T12:57:44;14.40;99.90
19646;DHT22;9971;52.446;13.452;2023-02-21T13:02:49;14.40;99.90
19646;DHT22;9971;52.446;13.452;2023-02-21T13:07:51;14.40;99.90
19646;DHT22;9971;52.446;13.452;2023-02-21T13:12:55;14.50;99.90
19646;DHT22;9971;52.446;13.452;2023-02-21T13:28:17;14.40;99.90
19646;DHT22;9971;52.446;13.452;2023-02-21T13:33:39;14.30;99.90
19646;DHT22;9971;52.446;13.452;2023-02-21T13:38:39;14.30;99.90
19646;DHT22;9971;52.446;13.452;2023-02-21T13:43:46;14.40;99.90
19646;DHT22;9971;52.446;13.452;2023-02-21T13:49:35;14.40;99.90
19646;DHT22;9971;52.446;13.452;2023-02-21T13:59:44;14.40;99.90
19646;DHT22;9971;52.446;13.452;2023-02-21T14:04:49;14.40;99.90
19646;DHT22;9971;52.446;13.452;2023-02-21T14:09:50;14.40;99.90
19646;DHT22;9971;52.446;13.452;2023-02-21T14:14:52;14.50;99.90
19646;DHT22;9971;52.446;13.452;2023-02-21T14:19:54;14.50;99.90
19646;DHT22;9971;52.446;13.452;2023-02-21T14:25:07;14.50;99.90
19646;DHT22;9971;52.446;13.452;2023-02-21T14:30:26;14.50;99.90
19646;DHT22;9971;52.446;13.452;2023-02-21T14:35:42;14.60;99.90
19646;DHT22;9971;52.446;13.452;2023-02-21T14:40:43;14.60;99.90
19646;DHT22;9971;52.446;13.452;2023-02-21T14:46:32;14.70;99.90
19646;DHT22;9971;52.446;13.452;2023-02-21T14:51:42;14.70;99.90
19646;DHT22;9971;52.446;13.452;2023-02-21T14:56:51;14.90;99.90
19646;DHT22;9971;52.446;13.452;2023-02-21T15:02:13;14.90;99.90
19646;DHT22;9971;52.446;13.452;2023-02-21T15:07:23;15.00;99.90
19646;DHT22;9971;52.446;13.452;2023-02-21T15:12:23;15.00;99.90
19646;DHT22;9971;52.446;13.452;2023-02-21T15:17:24;15.10;99.90
19646;DHT22;9971;52.446;13.452;2023-02-21T15:22:27;15.10;99.90
19646;DHT22;9971;52.446;13.452;2023-02-21T15:27:29;15.10;99.90
19646;DHT22;9971;52.446;13.452;2023-02-21T15:32:32;15.10;99.90
19646;DHT22;9971;52.446;13.452;2023-02-21T15:37:34;15.10;99.90
19646;DHT22;9971;52.446;13.452;2023-02-21T15:42:37;15.20;99.90
19646;DHT22;9971;52.446;13.452;2023-02-21T15:47:39;15.20;99.90
19646;DHT22;9971;52.446;13.452;2023-02-21T15:52:43;15.20;99.90
19646;DHT22;9971;52.446;13.452;2023-02-21T16:08:10;15.40;99.90
19646;DHT22;9971;52.446;13.452;2023-02-21T16:13:10;15.40;99.90
19646;DHT22;9971;52.446;13.452;2023-02-21T16:18:15;15.40;99.90
19646;DHT22;9971;52.446;13.452;2023-02-21T16:23:29;15.40;99.90
19646;DHT22;9971;52.446;13.452;2023-02-21T16:28:27;15.50;99.90
19646;DHT22;9971;52.446;13.452;2023-02-21T16:33:29;15.50;99.90
19646;DHT22;9971;52.446;13.452;2023-02-21T16:38:31;15.60;99.90
19646;DHT22;9971;52.446;13.452;2023-02-21T16:43:33;15.60;99.90
19646;DHT22;9971;52.446;13.452;2023-02-21T16:48:36;15.60;99.90
19646;DHT22;9971;52.446;13.452;2023-02-21T16:53:38;15.70;99.90
19646;DHT22;9971;52.446;13.452;2023-02-21T16:58:41;15.70;99.90
19646;DHT22;9971;52.446;13.452;2023-02-21T17:03:43;15.70;99.90
19646;DHT22;9971;52.446;13.452;2023-02-21T17:08:45;15.80;99.90
19646;DHT22;9971;52.446;13.452;2023-02-21T17:13:47;15.80;99.90
19646;DHT22;9971;52.446;13.452;2023-02-21T17:18:50;15.90;99.90
19646;DHT22;9971;52.446;13.452;2023-02-21T17:23:52;15.90;99.90
19646;DHT22;9971;52.446;13.452;2023-02-21T17:28:55;15.90;99.90
19646;DHT22;9971;52.446;13.452;2023-02-21T17:33:57;15.90;99.90
19646;DHT22;9971;52.446;13.452;2023-02-21T17:39:00;16.00;99.90
19646;DHT22;9971;52.446;13.452;2023-02-21T17:44:02;16.00;99.90
19646;DHT22;9971;52.446;13.452;2023-02-21T17:49:05;16.10;99.90
19646;DHT22;9971;52.446;13.452;2023-02-21T17:54:07;16.10;99.90
19646;DHT22;9971;52.446;13.452;2023-02-21T17:59:10;16.10;99.90
19646;DHT22;9971;52.446;13.452;2023-02-21T18:04:12;16.20;99.90
19646;DHT22;9971;52.446;13.452;2023-02-21T18:09:14;16.20;99.90
19646;DHT22;9971;52.446;13.452;2023-02-21T18:14:16;16.20;99.90
19646;DHT22;9971;52.446;13.452;2023-02-21T18:19:18;16.20;99.90
19646;DHT22;9971;52.446;13.452;2023-02-21T18:24:21;16.30;99.90
19646;DHT22;9971;52.446;13.452;2023-02-21T18:29:23;16.30;99.90
19646;DHT22;9971;52.446;13.452;2023-02-21T18:34:26;16.30;99.90
19646;DHT22;9971;52.446;13.452;2023-02-21T18:39:28;16.30;99.90
19646;DHT22;9971;52.446;13.452;2023-02-21T18:44:30;16.30;99.90
19646;DHT22;9971;52.446;13.452;2023-02-21T18:49:33;16.30;99.90
19646;DHT22;9971;52.446;13.452;2023-02-21T18:54:35;16.40;99.90
19646;DHT22;9971;52.446;13.452;2023-02-21T18:59:37;16.40;99.90
19646;DHT22;9971;52.446;13.452;2023-02-21T19:04:40;16.40;99.90
19646;DHT22;9971;52.446;13.452;2023-02-21T19:09:43;16.40;99.90
19646;DHT22;9971;52.446;13.452;2023-02-21T19:14:44;16.40;99.90
19646;DHT22;9971;52.446;13.452;2023-02-21T19:19:46;16.40;99.90
19646;DHT22;9971;52.446;13.452;2023-02-21T19:24:49;16.50;99.90
19646;DHT22;9971;52.446;13.452;2023-02-21T19:29:51;16.50;99.90
19646;DHT22;9971;52.446;13.452;2023-02-21T19:34:53;16.50;99.90
19646;DHT22;9971;52.446;13.452;2023-02-21T19:39:55;16.50;99.90
19646;DHT22;9971;52.446;13.452;2023-02-21T19:44:58;16.40;99.90
19646;DHT22;9971;52.446;13.452;2023-02-21T19:50:01;16.50;99.90
19646;DHT22;9971;52.446;13.452;2023-02-21T19:55:03;16.40;99.90
19646;DHT22;9971;52.446;13.452;2023-02-21T20:00:06;16.50;99.90
19646;DHT22;9971;52.446;13.452;2023-02-21T20:05:09;16.50;99.90
19646;DHT22;9971;52.446;13.452;2023-02-21T20:10:11;16.50;99.90
19646;DHT22;9971;52.446;13.452;2023-02-21T20:15:13;16.50;99.90
19646;DHT22;9971;52.446;13.452;2023-02-21T20:20:16;16.50;99.90
19646;DHT22;9971;52.446;13.452;2023-02-21T20:25:18;16.50;99.90
19646;DHT22;9971;52.446;13.452;2023-02-21T20:30:21;16.50;99.90
19646;DHT22;9971;52.446;13.452;2023-02-21T20:35:23;16.50;99.90
19646;DHT22;9971;52.446;13.452;2023-02-21T20:40:25;16.60;99.90
19646;DHT22;9971;52.446;13.452;2023-02-21T20:45:28;16.60;99.90
19646;DHT22;9971;52.446;13.452;2023-02-21T20:50:30;16.60;99.90
19646;DHT22;9971;52.446;13.452;2023-02-21T20:55:33;16.60;99.90
19646;DHT22;9971;52.446;13.452;2023-02-21T21:00:35;16.60;99.90
19646;DHT22;9971;52.446;13.452;2023-02-21T21:05:37;16.60;99.90
19646;DHT22;9971;52.446;13.452;2023-02-21T21:10:40;16.60;99.90
19646;DHT22;9971;52.446;13.452;2023-02-21T21:15:42;16.60;99.90
19646;DHT22;9971;52.446;13.452;2023-02-21T21:20:44;16.60;99.90
19646;DHT22;9971;52.446;13.452;2023-02-21T21:25:46;16.60;99.90
19646;DHT22;9971;52.446;13.452;2023-02-21T21:30:49;16.60;99.90
19646;DHT22;9971;52.446;13.452;2023-02-21T21:35:51;16.60;99.90
19646;DHT22;9971;52.446;13.452;2023-02-21T21:40:53;16.60;99.90
19646;DHT22;9971;52.446;13.452;2023-02-21T21:45:55;16.60;99.90
19646;DHT22;9971;52.446;13.452;2023-02-21T21:50:57;16.60;99.90
19646;DHT22;9971;52.446;13.452;2023-02-21T21:55:59;16.70;99.90
19646;DHT22;9971;52.446;13.452;2023-02-21T22:01:02;16.70;99.90
19646;DHT22;9971;52.446;13.452;2023-02-21T22:06:04;16.60;99.90
19646;DHT22;9971;52.446;13.452;2023-02-21T22:11:07;16.70;99.90
19646;DHT22;9971;52.446;13.452;2023-02-21T22:16:09;16.70;99.90
19646;DHT22;9971;52.446;13.452;2023-02-21T22:21:11;16.70;99.90
19646;DHT22;9971;52.446;13.452;2023-02-21T22:26:17;16.70;99.90
19646;DHT22;9971;52.446;13.452;2023-02-21T22:31:18;16.70;99.90
19646;DHT22;9971;52.446;13.452;2023-02-21T22:36:21;16.70;99.90
19646;DHT22;9971;52.446;13.452;2023-02-21T22:41:24;16.80;99.90
19646;DHT22;9971;52.446;13.452;2023-02-21T22:46:25;16.80;99.90
19646;DHT22;9971;52.446;13.452;2023-02-21T22:51:27;16.80;99.90
19646;DHT22;9971;52.446;13.452;2023-02-21T22:56:29;16.80;99.90
19646;DHT22;9971;52.446;13.452;2023-02-21T23:01:31;16.80;99.90
19646;DHT22;9971;52.446;13.452;2023-02-21T23:06:33;16.80;99.90
19646;DHT22;9971;52.446;13.452;2023-02-21T23:11:37;16.80;99.90
19646;DHT22;9971;52.446;13.452;2023-02-21T23:16:39;16.90;99.90
19646;DHT22;9971;52.446;13.452;2023-02-21T23:21:46;16.90;99.90
19646;DHT22;9971;52.446;13.452;2023-02-21T23:26:48;16.90;99.90
19646;DHT22;9971;52.446;13.452;2023-02-21T23:31:50;16.90;99.90
19646;DHT22;9971;52.446;13.452;2023-02-21T23:36:52;16.90;99.90
19646;DHT22;9971;52.446;13.452;2023-02-21T23:41:54;16.90;99.90
19646;DHT22;9971;52.446;13.452;2023-02-21T23:46:56;16.90;99.90
19646;DHT22;9971;52.446;13.452;2023-02-21T23:51:59;16.90;99.90
19646;DHT22;9971;52.446;13.452;2023-02-21T23:57:01;16.90;99.90
